createdAt,value
2023-02-23T14:54:34.224Z,100187.16
2023-02-23T14:57:03.163Z,100188.25
2023-02-23T14:59:37.345Z,100189.00
2023-02-23T15:02:09.062Z,100185.34
2023-02-23T15:04:35.731Z,100183.25
2023-02-23T15:07:02.410Z,100182.94
2023-02-23T15:09:35.296Z,100179.88
2023-02-23T15:12:12.159Z,100185.84
2023-02-23T15:14:39.942Z,100187.53
2023-02-23T15:17:10.435Z,100192.19
2023-02-23T15:19:37.281Z,100186.19
2023-02-23T15:22:05.669Z,100186.69
2023-02-23T15:24:43.411Z,100188.25
2023-02-23T15:27:17.742Z,100185.81
2023-02-23T15:29:44.506Z,100188.75
2023-02-23T15:32:14.102Z,100185.34
2023-02-23T15:34:41.112Z,100186.69
2023-02-23T15:37:14.682Z,100181.22
2023-02-23T15:39:48.631Z,100172.13
2023-02-23T15:42:17.662Z,100164.34
2023-02-23T15:44:45.506Z,100173.31
2023-02-23T15:47:20.983Z,100177.31
2023-02-23T15:49:47.979Z,100171.28
2023-02-23T15:52:17.405Z,100175.16
2023-02-23T15:54:51.287Z,100176.22
2023-02-23T15:57:21.007Z,100177.06
2023-02-23T15:59:48.670Z,100179.03
2023-02-23T16:02:17.484Z,100178.44
2023-02-23T16:04:44.032Z,100183.41
2023-02-23T16:07:17.319Z,100181.94
2023-02-23T16:09:50.605Z,100174.66
2023-02-23T16:12:21.062Z,100181.22
2023-02-23T16:14:53.392Z,100176.97
2023-02-23T16:17:25.397Z,100174.88
2023-02-23T16:19:52.679Z,100178.72
2023-02-23T16:22:23.510Z,100175.75
2023-02-23T16:24:59.367Z,100171.16
2023-02-23T16:27:28.214Z,100176.72
2023-02-23T16:29:58.278Z,100172.09
2023-02-23T16:32:24.986Z,100167.19
2023-02-23T16:34:56.401Z,100165.75
2023-02-23T16:37:25.471Z,100168.91
2023-02-23T16:39:54.028Z,100169.75
2023-02-23T16:42:23.812Z,100169.75
2023-02-23T16:44:50.423Z,100168.91
2023-02-23T16:47:33.647Z,100169.28
2023-02-23T16:50:04.875Z,100177.22
2023-02-23T16:52:37.071Z,100169.34
2023-02-23T16:55:05.666Z,100170.13
2023-02-23T16:57:39.068Z,100171.78
2023-02-23T17:00:08.195Z,100169.28
2023-02-23T17:02:34.704Z,100164.53
2023-02-23T17:05:01.326Z,100165.25
2023-02-23T17:07:27.914Z,100165.25
2023-02-23T17:09:54.415Z,100163.31
2023-02-23T17:12:22.400Z,100166.69
2023-02-23T17:14:49.393Z,100167.66
2023-02-23T17:17:18.979Z,100165.09
2023-02-23T17:19:45.605Z,100161.13
2023-02-23T17:22:13.185Z,100152.84
2023-02-23T17:24:39.757Z,100165.91
2023-02-23T17:27:06.734Z,100160.28
2023-02-23T17:29:34.602Z,100162.72
2023-02-23T17:32:02.022Z,100157.22
2023-02-23T17:34:29.824Z,100167.94
2023-02-23T17:36:56.364Z,100169.50
2023-02-23T17:39:22.940Z,100167.28
2023-02-23T17:41:49.468Z,100175.72
2023-02-23T17:44:16.092Z,100172.50
2023-02-23T17:46:43.880Z,100170.47
2023-02-23T17:49:10.535Z,100170.28
2023-02-23T17:51:37.065Z,100177.00
2023-02-23T17:54:03.972Z,100174.88
2023-02-23T17:56:30.486Z,100178.25
2023-02-23T17:58:57.226Z,100181.13
2023-02-23T18:01:24.201Z,100179.47
2023-02-23T18:03:52.162Z,100185.69
2023-02-23T18:06:18.852Z,100184.44
2023-02-23T18:08:45.473Z,100193.47
2023-02-23T18:11:12.367Z,100191.91
2023-02-23T18:13:39.134Z,100202.03
2023-02-23T18:16:08.323Z,100208.28
2023-02-23T18:18:37.300Z,100210.63
2023-02-23T18:21:11.168Z,100216.88
2023-02-23T18:23:37.868Z,100214.31
2023-02-23T18:26:06.204Z,100219.66
2023-02-23T18:28:33.476Z,100221.34
2023-02-23T18:31:00.354Z,100229.03
2023-02-23T18:33:26.884Z,100229.28
2023-02-23T18:35:53.459Z,100235.47
2023-02-23T18:38:21.337Z,100235.63
2023-02-23T18:40:47.941Z,100242.75
2023-02-23T18:43:14.568Z,100236.59
2023-02-23T18:45:41.243Z,100239.16
2023-02-23T18:48:07.798Z,100235.28
2023-02-23T18:50:34.327Z,100231.97
2023-02-23T18:53:00.840Z,100229.34
2023-02-23T18:55:28.681Z,100229.13
2023-02-23T18:57:55.217Z,100230.78
2023-02-23T19:00:22.551Z,100234.06
2023-02-23T19:02:50.251Z,100236.59
2023-02-23T19:05:19.018Z,100229.13
2023-02-23T19:07:47.318Z,100235.16
2023-02-23T19:10:14.012Z,100223.44
2023-02-23T19:12:42.890Z,100224.69
2023-02-23T19:15:10.042Z,100231.50
2023-02-23T19:17:36.867Z,100233.47
2023-02-23T19:20:04.125Z,100229.28
2023-02-23T19:22:30.659Z,100228.81
2023-02-23T19:24:57.174Z,100232.22
2023-02-23T19:27:23.713Z,100226.28
2023-02-23T19:29:51.548Z,100221.31
2023-02-23T19:32:18.278Z,100215.13
2023-02-23T19:34:45.244Z,100223.44
2023-02-23T19:37:12.585Z,100224.63
2023-02-23T19:39:39.592Z,100225.63
2023-02-23T19:42:06.299Z,100225.78
2023-02-23T19:44:32.875Z,100216.25
2023-02-23T19:47:00.727Z,100214.25
2023-02-23T19:49:27.207Z,100224.03
2023-02-23T19:51:53.805Z,100222.34
2023-02-23T19:54:20.889Z,100221.31
2023-02-23T19:56:47.798Z,100228.63
2023-02-23T19:59:14.282Z,100228.47
2023-02-23T20:01:40.795Z,100229.06
2023-02-23T20:04:08.677Z,100230.72
2023-02-23T20:06:40.579Z,100233.78
2023-02-23T20:09:07.142Z,100230.88
2023-02-23T20:11:33.707Z,100239.09
2023-02-23T20:14:00.647Z,100240.56
2023-02-23T20:16:27.244Z,100242.84
2023-02-23T20:18:54.104Z,100248.38
2023-02-23T20:21:24.082Z,100238.81
2023-02-23T20:23:51.573Z,100253.91
2023-02-23T20:26:20.056Z,100253.41
2023-02-23T20:28:46.731Z,100254.97
2023-02-23T20:31:14.427Z,100257.50
2023-02-23T20:33:41.222Z,100268.97
2023-02-23T20:36:08.478Z,100272.47
2023-02-23T20:38:36.505Z,100266.38
2023-02-23T20:41:03.475Z,100266.38
2023-02-23T20:43:30.188Z,100268.22
2023-02-23T20:45:57.572Z,100274.31
2023-02-23T20:48:24.153Z,100268.56
2023-02-23T20:50:53.412Z,100284.53
2023-02-23T20:53:20.023Z,100281.78
2023-02-23T20:55:48.612Z,100295.84
2023-02-23T20:58:15.100Z,100297.69
2023-02-23T21:00:41.622Z,100295.53
2023-02-23T21:03:08.152Z,100295.53
2023-02-23T21:05:39.330Z,100300.38
2023-02-23T21:08:07.502Z,100302.47
2023-02-23T21:10:36.654Z,100297.44
2023-02-23T21:13:05.499Z,100302.56
2023-02-23T21:15:32.541Z,100308.03
2023-02-23T21:17:59.645Z,100303.25
2023-02-23T21:20:27.054Z,100307.66
2023-02-23T21:22:53.999Z,100302.81
2023-02-23T21:25:23.502Z,100299.31
2023-02-23T21:27:50.574Z,100299.97
2023-02-23T21:30:20.373Z,100302.59
2023-02-23T21:32:47.943Z,100310.22
2023-02-23T21:35:14.824Z,100299.47
2023-02-23T21:37:42.583Z,100305.28
2023-02-23T21:40:12.178Z,100310.00
2023-02-23T21:42:40.530Z,100309.66
2023-02-23T21:45:08.364Z,100301.03
2023-02-23T21:47:37.240Z,100307.38
2023-02-23T21:50:04.848Z,100308.44
2023-02-23T21:52:31.548Z,100306.66
2023-02-23T21:54:58.608Z,100307.19
2023-02-23T21:57:26.052Z,100302.88
2023-02-23T21:59:53.078Z,100298.16
2023-02-23T22:02:19.776Z,100305.22
2023-02-23T22:04:48.544Z,100295.16
2023-02-23T22:07:15.423Z,100296.50
2023-02-23T22:09:42.031Z,100301.88
2023-02-23T22:12:09.000Z,100304.31
2023-02-23T22:14:35.764Z,100295.88
2023-02-23T22:17:02.332Z,100293.91
2023-02-23T22:19:28.815Z,100299.28
2023-02-23T22:21:56.691Z,100293.53
2023-02-23T22:24:23.337Z,100297.97
2023-02-23T22:26:50.006Z,100299.03
2023-02-23T22:29:16.930Z,100304.09
2023-02-23T22:31:43.676Z,100310.03
2023-02-23T22:34:10.413Z,100311.28
2023-02-23T22:36:36.965Z,100302.41
2023-02-23T22:39:05.540Z,100308.34
2023-02-23T22:41:32.138Z,100300.13
2023-02-23T22:43:58.741Z,100296.34
2023-02-23T22:46:26.284Z,100294.94
2023-02-23T22:48:53.017Z,100303.56
2023-02-23T22:51:19.810Z,100296.34
2023-02-23T22:53:46.492Z,100293.66
2023-02-23T22:56:14.307Z,100296.47
2023-02-23T22:58:40.948Z,100289.91
2023-02-23T23:01:10.741Z,100292.28
2023-02-23T23:03:40.008Z,100291.84
2023-02-23T23:06:08.630Z,100295.69
2023-02-23T23:08:37.516Z,100294.50
2023-02-23T23:11:06.410Z,100289.94
2023-02-23T23:13:34.236Z,100282.72
2023-02-23T23:16:07.783Z,100286.00
2023-02-23T23:18:35.193Z,100278.47
2023-02-23T23:21:01.910Z,100269.91
2023-02-23T23:23:28.436Z,100277.56
2023-02-23T23:25:55.004Z,100267.78
2023-02-23T23:28:21.537Z,100274.50
2023-02-23T23:30:49.453Z,100264.03
2023-02-23T23:33:15.990Z,100266.91
2023-02-23T23:35:42.525Z,100263.91
2023-02-23T23:38:09.136Z,100263.44
2023-02-23T23:40:35.864Z,100263.28
2023-02-23T23:43:02.448Z,100262.28
2023-02-23T23:45:28.980Z,100272.72
2023-02-23T23:47:56.854Z,100267.44
2023-02-23T23:50:23.544Z,100262.81
2023-02-23T23:52:50.024Z,100266.28
2023-02-23T23:55:16.577Z,100271.63
2023-02-23T23:57:43.148Z,100265.63
